sensor_id;sensor_type;location;lat;lon;timestamp;P1;durP1;ratioP1;P2;durP2;ratioP2
77080;SDS011;66009;53.150;18.160;2023-03-31T06:54:07;2.90;;;1.20;;
77080;SDS011;66009;53.150;18.160;2023-03-31T06:58:00;7.00;;;3.30;;
77080;SDS011;66009;53.150;18.160;2023-03-31T07:00:27;6.90;;;3.60;;
77080;SDS011;66009;53.150;18.160;2023-03-31T07:02:53;6.70;;;3.70;;
77080;SDS011;66009;53.150;18.160;2023-03-31T07:05:20;7.20;;;3.40;;
77080;SDS011;66009;53.150;18.160;2023-03-31T07:07:53;8.30;;;3.50;;
77080;SDS011;66009;53.150;18.160;2023-03-31T07:10:21;10.70;;;4.10;;
77080;SDS011;66009;53.150;18.160;2023-03-31T07:12:48;7.90;;;4.20;;
77080;SDS011;66009;53.150;18.160;2023-03-31T07:15:15;8.80;;;3.90;;
77080;SDS011;66009;53.150;18.160;2023-03-31T07:17:43;6.70;;;3.40;;
77080;SDS011;66009;53.150;18.160;2023-03-31T07:20:10;6.20;;;3.60;;
77080;SDS011;66009;53.150;18.160;2023-03-31T07:22:41;7.50;;;3.90;;
77080;SDS011;66009;53.150;18.160;2023-03-31T07:25:09;7.10;;;4.20;;
77080;SDS011;66009;53.150;18.160;2023-03-31T07:27:37;7.80;;;4.50;;
77080;SDS011;66009;53.150;18.160;2023-03-31T07:30:09;9.70;;;4.30;;
77080;SDS011;66009;53.150;18.160;2023-03-31T07:32:42;8.20;;;4.00;;
77080;SDS011;66009;53.150;18.160;2023-03-31T07:35:12;7.40;;;3.70;;
77080;SDS011;66009;53.150;18.160;2023-03-31T07:37:39;9.10;;;3.60;;
77080;SDS011;66009;53.150;18.160;2023-03-31T07:40:09;5.50;;;3.10;;
77080;SDS011;66009;53.150;18.160;2023-03-31T07:42:38;6.90;;;3.50;;
77080;SDS011;66009;53.150;18.160;2023-03-31T07:45:05;7.80;;;3.90;;
77080;SDS011;66009;53.150;18.160;2023-03-31T07:47:33;8.80;;;3.80;;
77080;SDS011;66009;53.150;18.160;2023-03-31T07:50:00;10.00;;;4.20;;
77080;SDS011;66009;53.150;18.160;2023-03-31T07:52:27;8.00;;;3.70;;
77080;SDS011;66009;53.150;18.160;2023-03-31T07:54:54;6.80;;;3.90;;
77080;SDS011;66009;53.150;18.160;2023-03-31T07:57:20;8.20;;;3.90;;
77080;SDS011;66009;53.150;18.160;2023-03-31T07:59:47;8.30;;;4.10;;
77080;SDS011;66009;53.150;18.160;2023-03-31T08:02:14;6.40;;;3.30;;
77080;SDS011;66009;53.150;18.160;2023-03-31T08:04:43;7.70;;;3.70;;
77080;SDS011;66009;53.150;18.160;2023-03-31T08:07:11;6.50;;;3.60;;
77080;SDS011;66009;53.150;18.160;2023-03-31T08:12:06;8.40;;;4.00;;
77080;SDS011;66009;53.150;18.160;2023-03-31T08:14:33;7.80;;;3.80;;
77080;SDS011;66009;53.150;18.160;2023-03-31T08:16:59;7.10;;;3.90;;
77080;SDS011;66009;53.150;18.160;2023-03-31T08:19:26;8.20;;;3.80;;
77080;SDS011;66009;53.150;18.160;2023-03-31T08:21:53;8.80;;;4.30;;
77080;SDS011;66009;53.150;18.160;2023-03-31T08:24:19;7.30;;;3.80;;
77080;SDS011;66009;53.150;18.160;2023-03-31T08:26:46;8.30;;;3.70;;
77080;SDS011;66009;53.150;18.160;2023-03-31T08:29:13;8.40;;;4.10;;
77080;SDS011;66009;53.150;18.160;2023-03-31T08:31:40;9.30;;;4.50;;
77080;SDS011;66009;53.150;18.160;2023-03-31T08:34:07;8.90;;;4.50;;
77080;SDS011;66009;53.150;18.160;2023-03-31T08:36:33;7.10;;;4.90;;
77080;SDS011;66009;53.150;18.160;2023-03-31T08:39:01;9.60;;;4.20;;
77080;SDS011;66009;53.150;18.160;2023-03-31T08:44:25;10.10;;;4.10;;
77080;SDS011;66009;53.150;18.160;2023-03-31T08:47:06;8.70;;;4.60;;
77080;SDS011;66009;53.150;18.160;2023-03-31T08:49:41;7.70;;;4.80;;
77080;SDS011;66009;53.150;18.160;2023-03-31T08:52:12;6.00;;;3.30;;
77080;SDS011;66009;53.150;18.160;2023-03-31T08:54:43;9.20;;;4.30;;
77080;SDS011;66009;53.150;18.160;2023-03-31T08:57:16;8.30;;;3.80;;
77080;SDS011;66009;53.150;18.160;2023-03-31T08:59:51;8.40;;;4.40;;
77080;SDS011;66009;53.150;18.160;2023-03-31T09:02:52;8.30;;;4.30;;
77080;SDS011;66009;53.150;18.160;2023-03-31T09:05:47;8.00;;;4.40;;
77080;SDS011;66009;53.150;18.160;2023-03-31T09:08:38;10.60;;;5.30;;
77080;SDS011;66009;53.150;18.160;2023-03-31T09:16:17;8.80;;;4.50;;
77080;SDS011;66009;53.150;18.160;2023-03-31T09:18:54;8.10;;;3.90;;
77080;SDS011;66009;53.150;18.160;2023-03-31T09:23:57;7.30;;;4.00;;
77080;SDS011;66009;53.150;18.160;2023-03-31T09:26:46;7.60;;;3.50;;
77080;SDS011;66009;53.150;18.160;2023-03-31T09:29:20;7.90;;;3.90;;
77080;SDS011;66009;53.150;18.160;2023-03-31T09:32:05;9.20;;;4.20;;
77080;SDS011;66009;53.150;18.160;2023-03-31T09:34:39;8.20;;;4.40;;
77080;SDS011;66009;53.150;18.160;2023-03-31T09:37:08;9.80;;;4.90;;
77080;SDS011;66009;53.150;18.160;2023-03-31T09:39:36;6.20;;;3.40;;
77080;SDS011;66009;53.150;18.160;2023-03-31T09:42:03;9.20;;;4.60;;
77080;SDS011;66009;53.150;18.160;2023-03-31T09:44:42;9.30;;;4.00;;
77080;SDS011;66009;53.150;18.160;2023-03-31T09:47:58;8.50;;;3.90;;
77080;SDS011;66009;53.150;18.160;2023-03-31T09:50:06;8.70;;;3.90;;
77080;SDS011;66009;53.150;18.160;2023-03-31T09:52:34;6.80;;;3.90;;
77080;SDS011;66009;53.150;18.160;2023-03-31T09:55:05;8.80;;;4.40;;
77080;SDS011;66009;53.150;18.160;2023-03-31T09:57:52;10.10;;;4.20;;
77080;SDS011;66009;53.150;18.160;2023-03-31T10:00:20;12.40;;;4.00;;
77080;SDS011;66009;53.150;18.160;2023-03-31T10:02:49;10.60;;;4.60;;
77080;SDS011;66009;53.150;18.160;2023-03-31T10:07:49;9.10;;;3.90;;
77080;SDS011;66009;53.150;18.160;2023-03-31T10:10:30;9.60;;;3.80;;
77080;SDS011;66009;53.150;18.160;2023-03-31T10:12:59;7.10;;;3.70;;
77080;SDS011;66009;53.150;18.160;2023-03-31T10:15:32;7.70;;;2.90;;
77080;SDS011;66009;53.150;18.160;2023-03-31T10:18:03;8.10;;;3.60;;
77080;SDS011;66009;53.150;18.160;2023-03-31T10:20:36;7.20;;;4.10;;
77080;SDS011;66009;53.150;18.160;2023-03-31T10:25:52;8.00;;;3.80;;
77080;SDS011;66009;53.150;18.160;2023-03-31T10:28:20;9.80;;;4.10;;
77080;SDS011;66009;53.150;18.160;2023-03-31T10:30:48;8.00;;;3.20;;
77080;SDS011;66009;53.150;18.160;2023-03-31T10:33:22;8.50;;;4.00;;
77080;SDS011;66009;53.150;18.160;2023-03-31T10:35:57;7.80;;;3.50;;
77080;SDS011;66009;53.150;18.160;2023-03-31T10:38:26;9.40;;;3.60;;
77080;SDS011;66009;53.150;18.160;2023-03-31T10:40:57;8.70;;;3.60;;
77080;SDS011;66009;53.150;18.160;2023-03-31T10:45:56;7.60;;;3.30;;
77080;SDS011;66009;53.150;18.160;2023-03-31T10:48:31;8.60;;;3.50;;
77080;SDS011;66009;53.150;18.160;2023-03-31T10:50:59;7.30;;;3.10;;
77080;SDS011;66009;53.150;18.160;2023-03-31T10:53:38;8.00;;;2.90;;
77080;SDS011;66009;53.150;18.160;2023-03-31T10:56:32;8.90;;;3.70;;
77080;SDS011;66009;53.150;18.160;2023-03-31T11:10:00;9.20;;;3.50;;
77080;SDS011;66009;53.150;18.160;2023-03-31T11:12:42;6.30;;;2.80;;
77080;SDS011;66009;53.150;18.160;2023-03-31T11:15:21;7.40;;;2.90;;
77080;SDS011;66009;53.150;18.160;2023-03-31T11:25:59;8.30;;;3.70;;
77080;SDS011;66009;53.150;18.160;2023-03-31T11:28:52;7.50;;;3.50;;
77080;SDS011;66009;53.150;18.160;2023-03-31T11:34:27;8.80;;;3.50;;
77080;SDS011;66009;53.150;18.160;2023-03-31T11:37:23;8.30;;;3.70;;
77080;SDS011;66009;53.150;18.160;2023-03-31T11:40:01;8.00;;;3.90;;
77080;SDS011;66009;53.150;18.160;2023-03-31T11:45:34;7.70;;;3.80;;
77080;SDS011;66009;53.150;18.160;2023-03-31T11:48:06;9.20;;;3.50;;
77080;SDS011;66009;53.150;18.160;2023-03-31T11:50:41;7.20;;;3.20;;
77080;SDS011;66009;53.150;18.160;2023-03-31T11:53:19;8.20;;;3.20;;
77080;SDS011;66009;53.150;18.160;2023-03-31T11:55:50;8.00;;;3.50;;
77080;SDS011;66009;53.150;18.160;2023-03-31T11:58:37;7.70;;;3.20;;
77080;SDS011;66009;53.150;18.160;2023-03-31T12:01:07;7.80;;;3.00;;
77080;SDS011;66009;53.150;18.160;2023-03-31T12:06:20;7.80;;;3.40;;
77080;SDS011;66009;53.150;18.160;2023-03-31T12:08:51;6.90;;;3.20;;
77080;SDS011;66009;53.150;18.160;2023-03-31T12:14:54;7.10;;;3.40;;
77080;SDS011;66009;53.150;18.160;2023-03-31T12:17:28;7.50;;;3.20;;
77080;SDS011;66009;53.150;18.160;2023-03-31T12:20:04;7.60;;;3.50;;
77080;SDS011;66009;53.150;18.160;2023-03-31T12:22:44;5.90;;;3.20;;
77080;SDS011;66009;53.150;18.160;2023-03-31T12:25:13;6.30;;;3.20;;
77080;SDS011;66009;53.150;18.160;2023-03-31T12:27:44;7.60;;;3.40;;
77080;SDS011;66009;53.150;18.160;2023-03-31T12:30:22;10.00;;;3.70;;
77080;SDS011;66009;53.150;18.160;2023-03-31T12:41:23;9.50;;;3.00;;
77080;SDS011;66009;53.150;18.160;2023-03-31T12:44:02;7.90;;;3.20;;
77080;SDS011;66009;53.150;18.160;2023-03-31T12:52:20;5.90;;;3.00;;
77080;SDS011;66009;53.150;18.160;2023-03-31T12:55:00;6.50;;;3.50;;
77080;SDS011;66009;53.150;18.160;2023-03-31T13:00:26;6.60;;;3.40;;
77080;SDS011;66009;53.150;18.160;2023-03-31T13:06:00;6.80;;;3.40;;
77080;SDS011;66009;53.150;18.160;2023-03-31T13:14:10;8.20;;;4.30;;
77080;SDS011;66009;53.150;18.160;2023-03-31T13:16:42;8.80;;;3.80;;
77080;SDS011;66009;53.150;18.160;2023-03-31T13:19:10;8.30;;;4.30;;
77080;SDS011;66009;53.150;18.160;2023-03-31T13:21:52;10.30;;;4.00;;
77080;SDS011;66009;53.150;18.160;2023-03-31T13:24:21;8.20;;;3.50;;
77080;SDS011;66009;53.150;18.160;2023-03-31T13:26:50;6.70;;;3.70;;
77080;SDS011;66009;53.150;18.160;2023-03-31T13:29:20;7.70;;;3.80;;
77080;SDS011;66009;53.150;18.160;2023-03-31T13:34:33;9.10;;;3.20;;
77080;SDS011;66009;53.150;18.160;2023-03-31T13:39:55;9.00;;;3.10;;
77080;SDS011;66009;53.150;18.160;2023-03-31T13:50:59;7.30;;;3.10;;
77080;SDS011;66009;53.150;18.160;2023-03-31T14:04:54;5.90;;;2.90;;
77080;SDS011;66009;53.150;18.160;2023-03-31T14:07:29;7.70;;;3.00;;
77080;SDS011;66009;53.150;18.160;2023-03-31T14:10:02;7.80;;;3.00;;
77080;SDS011;66009;53.150;18.160;2023-03-31T14:12:30;6.30;;;2.90;;
77080;SDS011;66009;53.150;18.160;2023-03-31T14:14:57;6.20;;;2.70;;
77080;SDS011;66009;53.150;18.160;2023-03-31T14:17:26;8.70;;;3.00;;
77080;SDS011;66009;53.150;18.160;2023-03-31T14:25:47;6.20;;;3.20;;
77080;SDS011;66009;53.150;18.160;2023-03-31T14:31:29;7.40;;;3.60;;
77080;SDS011;66009;53.150;18.160;2023-03-31T14:39:29;9.60;;;5.40;;
77080;SDS011;66009;53.150;18.160;2023-03-31T14:41:59;9.80;;;5.60;;
77080;SDS011;66009;53.150;18.160;2023-03-31T14:44:29;9.00;;;5.00;;
77080;SDS011;66009;53.150;18.160;2023-03-31T14:46:56;7.60;;;4.00;;
77080;SDS011;66009;53.150;18.160;2023-03-31T14:49:27;8.70;;;4.80;;
77080;SDS011;66009;53.150;18.160;2023-03-31T14:52:00;10.60;;;4.00;;
77080;SDS011;66009;53.150;18.160;2023-03-31T14:54:32;7.80;;;4.00;;
77080;SDS011;66009;53.150;18.160;2023-03-31T14:57:03;6.10;;;3.30;;
77080;SDS011;66009;53.150;18.160;2023-03-31T14:59:31;11.40;;;4.00;;
77080;SDS011;66009;53.150;18.160;2023-03-31T15:02:01;6.70;;;3.00;;
77080;SDS011;66009;53.150;18.160;2023-03-31T15:04:30;10.10;;;3.70;;
77080;SDS011;66009;53.150;18.160;2023-03-31T15:07:02;6.30;;;2.50;;
77080;SDS011;66009;53.150;18.160;2023-03-31T15:09:31;15.90;;;8.50;;
77080;SDS011;66009;53.150;18.160;2023-03-31T15:12:02;12.80;;;5.70;;
77080;SDS011;66009;53.150;18.160;2023-03-31T15:14:34;13.90;;;5.00;;
77080;SDS011;66009;53.150;18.160;2023-03-31T15:17:04;7.00;;;2.50;;
77080;SDS011;66009;53.150;18.160;2023-03-31T15:19:34;7.00;;;2.60;;
77080;SDS011;66009;53.150;18.160;2023-03-31T15:22:07;12.60;;;3.80;;
77080;SDS011;66009;53.150;18.160;2023-03-31T15:24:39;7.10;;;2.50;;
77080;SDS011;66009;53.150;18.160;2023-03-31T15:27:07;6.60;;;2.50;;
77080;SDS011;66009;53.150;18.160;2023-03-31T15:29:57;7.80;;;3.20;;
77080;SDS011;66009;53.150;18.160;2023-03-31T15:32:29;7.20;;;2.70;;
77080;SDS011;66009;53.150;18.160;2023-03-31T15:34:57;7.00;;;3.00;;
77080;SDS011;66009;53.150;18.160;2023-03-31T15:37:29;6.20;;;2.80;;
77080;SDS011;66009;53.150;18.160;2023-03-31T15:40:14;7.20;;;2.90;;
77080;SDS011;66009;53.150;18.160;2023-03-31T15:42:49;8.40;;;3.30;;
77080;SDS011;66009;53.150;18.160;2023-03-31T15:48:21;9.30;;;4.60;;
77080;SDS011;66009;53.150;18.160;2023-03-31T15:53:47;7.70;;;3.40;;
77080;SDS011;66009;53.150;18.160;2023-03-31T15:56:36;5.90;;;3.10;;
77080;SDS011;66009;53.150;18.160;2023-03-31T15:59:28;9.20;;;3.80;;
77080;SDS011;66009;53.150;18.160;2023-03-31T16:01:56;11.50;;;5.10;;
77080;SDS011;66009;53.150;18.160;2023-03-31T16:04:28;8.60;;;4.00;;
77080;SDS011;66009;53.150;18.160;2023-03-31T16:09:45;12.70;;;7.30;;
77080;SDS011;66009;53.150;18.160;2023-03-31T16:12:17;12.20;;;6.20;;
77080;SDS011;66009;53.150;18.160;2023-03-31T16:14:50;9.20;;;4.40;;
77080;SDS011;66009;53.150;18.160;2023-03-31T16:17:26;7.30;;;3.00;;
77080;SDS011;66009;53.150;18.160;2023-03-31T16:19:59;8.20;;;3.40;;
77080;SDS011;66009;53.150;18.160;2023-03-31T16:22:37;10.40;;;3.10;;
77080;SDS011;66009;53.150;18.160;2023-03-31T16:25:07;8.80;;;3.10;;
77080;SDS011;66009;53.150;18.160;2023-03-31T16:27:44;7.60;;;3.20;;
77080;SDS011;66009;53.150;18.160;2023-03-31T16:30:15;7.20;;;3.40;;
77080;SDS011;66009;53.150;18.160;2023-03-31T16:35:30;7.70;;;3.30;;
77080;SDS011;66009;53.150;18.160;2023-03-31T16:37:58;8.70;;;3.80;;
77080;SDS011;66009;53.150;18.160;2023-03-31T16:40:30;11.70;;;3.30;;
77080;SDS011;66009;53.150;18.160;2023-03-31T16:43:07;7.40;;;3.10;;
77080;SDS011;66009;53.150;18.160;2023-03-31T16:45:34;9.90;;;3.50;;
77080;SDS011;66009;53.150;18.160;2023-03-31T16:48:00;8.60;;;3.70;;
77080;SDS011;66009;53.150;18.160;2023-03-31T16:50:28;7.20;;;3.40;;
77080;SDS011;66009;53.150;18.160;2023-03-31T16:52:54;9.40;;;3.20;;
77080;SDS011;66009;53.150;18.160;2023-03-31T16:55:21;7.10;;;3.50;;
77080;SDS011;66009;53.150;18.160;2023-03-31T16:57:47;6.60;;;3.50;;
77080;SDS011;66009;53.150;18.160;2023-03-31T17:00:14;8.40;;;4.20;;
77080;SDS011;66009;53.150;18.160;2023-03-31T17:02:41;13.00;;;6.60;;
77080;SDS011;66009;53.150;18.160;2023-03-31T17:05:08;12.90;;;6.20;;
77080;SDS011;66009;53.150;18.160;2023-03-31T17:07:35;13.30;;;5.80;;
77080;SDS011;66009;53.150;18.160;2023-03-31T17:10:01;11.40;;;4.50;;
77080;SDS011;66009;53.150;18.160;2023-03-31T17:12:28;8.10;;;3.70;;
77080;SDS011;66009;53.150;18.160;2023-03-31T17:14:54;13.30;;;5.20;;
77080;SDS011;66009;53.150;18.160;2023-03-31T17:17:21;11.80;;;4.60;;
77080;SDS011;66009;53.150;18.160;2023-03-31T17:19:48;11.70;;;4.60;;
77080;SDS011;66009;53.150;18.160;2023-03-31T17:22:14;11.00;;;5.00;;
77080;SDS011;66009;53.150;18.160;2023-03-31T17:24:41;13.10;;;6.00;;
77080;SDS011;66009;53.150;18.160;2023-03-31T17:27:07;11.20;;;5.80;;
77080;SDS011;66009;53.150;18.160;2023-03-31T17:29:34;14.90;;;7.10;;
77080;SDS011;66009;53.150;18.160;2023-03-31T17:32:01;14.00;;;6.80;;
77080;SDS011;66009;53.150;18.160;2023-03-31T17:34:27;11.50;;;6.40;;
77080;SDS011;66009;53.150;18.160;2023-03-31T17:36:54;14.70;;;6.50;;
77080;SDS011;66009;53.150;18.160;2023-03-31T17:39:22;15.20;;;6.60;;
77080;SDS011;66009;53.150;18.160;2023-03-31T17:41:48;14.70;;;7.80;;
77080;SDS011;66009;53.150;18.160;2023-03-31T17:44:15;13.20;;;5.90;;
77080;SDS011;66009;53.150;18.160;2023-03-31T17:46:42;12.20;;;5.90;;
77080;SDS011;66009;53.150;18.160;2023-03-31T17:49:08;13.10;;;5.80;;
77080;SDS011;66009;53.150;18.160;2023-03-31T17:51:35;9.30;;;5.20;;
77080;SDS011;66009;53.150;18.160;2023-03-31T17:54:01;11.80;;;5.60;;
77080;SDS011;66009;53.150;18.160;2023-03-31T17:56:29;10.60;;;4.60;;
77080;SDS011;66009;53.150;18.160;2023-03-31T17:58:55;12.10;;;4.90;;
77080;SDS011;66009;53.150;18.160;2023-03-31T18:01:22;10.20;;;4.30;;
77080;SDS011;66009;53.150;18.160;2023-03-31T18:03:49;10.00;;;4.60;;
77080;SDS011;66009;53.150;18.160;2023-03-31T18:06:15;10.80;;;4.70;;
77080;SDS011;66009;53.150;18.160;2023-03-31T18:08:43;13.10;;;5.60;;
77080;SDS011;66009;53.150;18.160;2023-03-31T18:11:09;14.10;;;5.60;;
77080;SDS011;66009;53.150;18.160;2023-03-31T18:13:37;41.50;;;13.80;;
77080;SDS011;66009;53.150;18.160;2023-03-31T18:16:04;22.00;;;7.10;;
77080;SDS011;66009;53.150;18.160;2023-03-31T18:18:34;10.60;;;5.10;;
77080;SDS011;66009;53.150;18.160;2023-03-31T18:21:05;12.20;;;5.30;;
77080;SDS011;66009;53.150;18.160;2023-03-31T18:23:33;11.20;;;5.80;;
77080;SDS011;66009;53.150;18.160;2023-03-31T18:26:00;18.10;;;7.70;;
77080;SDS011;66009;53.150;18.160;2023-03-31T18:28:30;13.50;;;7.30;;
77080;SDS011;66009;53.150;18.160;2023-03-31T18:31:00;13.20;;;6.10;;
77080;SDS011;66009;53.150;18.160;2023-03-31T18:33:31;10.60;;;4.60;;
77080;SDS011;66009;53.150;18.160;2023-03-31T18:35:58;11.00;;;5.30;;
77080;SDS011;66009;53.150;18.160;2023-03-31T18:38:24;9.10;;;4.20;;
77080;SDS011;66009;53.150;18.160;2023-03-31T18:40:52;7.90;;;4.40;;
77080;SDS011;66009;53.150;18.160;2023-03-31T18:43:19;8.90;;;4.10;;
77080;SDS011;66009;53.150;18.160;2023-03-31T18:45:50;11.30;;;4.80;;
77080;SDS011;66009;53.150;18.160;2023-03-31T18:48:19;8.60;;;4.70;;
77080;SDS011;66009;53.150;18.160;2023-03-31T18:50:50;9.90;;;3.30;;
77080;SDS011;66009;53.150;18.160;2023-03-31T18:53:18;8.00;;;3.40;;
77080;SDS011;66009;53.150;18.160;2023-03-31T18:56:04;6.10;;;3.30;;
77080;SDS011;66009;53.150;18.160;2023-03-31T18:58:31;8.20;;;3.40;;
77080;SDS011;66009;53.150;18.160;2023-03-31T19:00:58;7.40;;;3.60;;
77080;SDS011;66009;53.150;18.160;2023-03-31T19:03:26;6.60;;;3.20;;
77080;SDS011;66009;53.150;18.160;2023-03-31T19:06:04;6.60;;;3.00;;
77080;SDS011;66009;53.150;18.160;2023-03-31T19:08:35;5.50;;;3.00;;
77080;SDS011;66009;53.150;18.160;2023-03-31T19:11:06;6.20;;;3.30;;
77080;SDS011;66009;53.150;18.160;2023-03-31T19:13:35;6.10;;;2.90;;
77080;SDS011;66009;53.150;18.160;2023-03-31T19:16:04;7.30;;;2.80;;
77080;SDS011;66009;53.150;18.160;2023-03-31T19:18:31;4.70;;;2.30;;
77080;SDS011;66009;53.150;18.160;2023-03-31T19:20:58;5.80;;;2.60;;
77080;SDS011;66009;53.150;18.160;2023-03-31T19:23:25;5.40;;;2.70;;
77080;SDS011;66009;53.150;18.160;2023-03-31T19:25:53;5.70;;;2.50;;
77080;SDS011;66009;53.150;18.160;2023-03-31T19:28:21;5.40;;;2.60;;
77080;SDS011;66009;53.150;18.160;2023-03-31T19:30:50;6.00;;;2.40;;
77080;SDS011;66009;53.150;18.160;2023-03-31T19:33:18;6.10;;;2.40;;
77080;SDS011;66009;53.150;18.160;2023-03-31T19:35:45;6.60;;;2.90;;
77080;SDS011;66009;53.150;18.160;2023-03-31T19:38:13;4.90;;;2.40;;
77080;SDS011;66009;53.150;18.160;2023-03-31T19:40:40;4.80;;;2.40;;
77080;SDS011;66009;53.150;18.160;2023-03-31T19:43:14;5.40;;;2.70;;
77080;SDS011;66009;53.150;18.160;2023-03-31T19:45:47;5.80;;;2.70;;
77080;SDS011;66009;53.150;18.160;2023-03-31T19:48:14;5.20;;;2.80;;
77080;SDS011;66009;53.150;18.160;2023-03-31T19:50:49;4.80;;;2.30;;
77080;SDS011;66009;53.150;18.160;2023-03-31T19:53:17;5.70;;;2.70;;
77080;SDS011;66009;53.150;18.160;2023-03-31T19:55:58;6.20;;;3.00;;
77080;SDS011;66009;53.150;18.160;2023-03-31T19:58:27;6.50;;;2.60;;
77080;SDS011;66009;53.150;18.160;2023-03-31T20:00:56;6.70;;;3.20;;
77080;SDS011;66009;53.150;18.160;2023-03-31T20:03:23;5.90;;;3.30;;
77080;SDS011;66009;53.150;18.160;2023-03-31T20:05:51;5.60;;;2.60;;
77080;SDS011;66009;53.150;18.160;2023-03-31T20:08:19;8.30;;;3.60;;
77080;SDS011;66009;53.150;18.160;2023-03-31T20:10:46;6.70;;;3.20;;
77080;SDS011;66009;53.150;18.160;2023-03-31T20:13:12;8.40;;;3.20;;
77080;SDS011;66009;53.150;18.160;2023-03-31T20:15:39;5.70;;;2.90;;
77080;SDS011;66009;53.150;18.160;2023-03-31T20:18:06;4.80;;;2.60;;
77080;SDS011;66009;53.150;18.160;2023-03-31T20:20:33;9.00;;;3.50;;
77080;SDS011;66009;53.150;18.160;2023-03-31T20:22:59;13.00;;;4.80;;
77080;SDS011;66009;53.150;18.160;2023-03-31T20:25:26;12.40;;;3.80;;
77080;SDS011;66009;53.150;18.160;2023-03-31T20:27:52;8.70;;;3.40;;
77080;SDS011;66009;53.150;18.160;2023-03-31T20:30:19;5.40;;;3.00;;
77080;SDS011;66009;53.150;18.160;2023-03-31T20:32:46;36.50;;;9.90;;
77080;SDS011;66009;53.150;18.160;2023-03-31T20:35:12;18.80;;;5.50;;
77080;SDS011;66009;53.150;18.160;2023-03-31T20:37:39;22.40;;;6.60;;
77080;SDS011;66009;53.150;18.160;2023-03-31T20:40:06;9.70;;;3.30;;
77080;SDS011;66009;53.150;18.160;2023-03-31T20:42:33;7.30;;;3.20;;
77080;SDS011;66009;53.150;18.160;2023-03-31T20:45:01;10.50;;;4.20;;
77080;SDS011;66009;53.150;18.160;2023-03-31T20:47:28;8.70;;;3.70;;
77080;SDS011;66009;53.150;18.160;2023-03-31T20:49:54;6.40;;;2.60;;
77080;SDS011;66009;53.150;18.160;2023-03-31T20:52:21;6.10;;;2.50;;
77080;SDS011;66009;53.150;18.160;2023-03-31T20:54:49;6.50;;;2.60;;
77080;SDS011;66009;53.150;18.160;2023-03-31T20:57:16;7.40;;;2.70;;
77080;SDS011;66009;53.150;18.160;2023-03-31T20:59:42;15.80;;;4.70;;
77080;SDS011;66009;53.150;18.160;2023-03-31T21:02:10;20.50;;;5.80;;
77080;SDS011;66009;53.150;18.160;2023-03-31T21:04:37;15.30;;;4.90;;
77080;SDS011;66009;53.150;18.160;2023-03-31T21:07:04;11.60;;;4.30;;
77080;SDS011;66009;53.150;18.160;2023-03-31T21:09:31;14.70;;;5.10;;
77080;SDS011;66009;53.150;18.160;2023-03-31T21:11:58;17.50;;;5.90;;
77080;SDS011;66009;53.150;18.160;2023-03-31T21:14:26;9.00;;;4.40;;
77080;SDS011;66009;53.150;18.160;2023-03-31T21:16:53;7.00;;;3.50;;
77080;SDS011;66009;53.150;18.160;2023-03-31T21:19:19;7.00;;;4.40;;
77080;SDS011;66009;53.150;18.160;2023-03-31T21:21:46;15.50;;;7.90;;
77080;SDS011;66009;53.150;18.160;2023-03-31T21:24:12;9.00;;;4.60;;
77080;SDS011;66009;53.150;18.160;2023-03-31T21:26:39;13.60;;;6.90;;
77080;SDS011;66009;53.150;18.160;2023-03-31T21:29:06;13.50;;;7.30;;
77080;SDS011;66009;53.150;18.160;2023-03-31T21:31:32;10.40;;;6.10;;
77080;SDS011;66009;53.150;18.160;2023-03-31T21:33:59;12.40;;;6.60;;
77080;SDS011;66009;53.150;18.160;2023-03-31T21:36:27;11.60;;;6.90;;
77080;SDS011;66009;53.150;18.160;2023-03-31T21:38:55;12.20;;;7.80;;
77080;SDS011;66009;53.150;18.160;2023-03-31T21:41:25;12.50;;;7.70;;
77080;SDS011;66009;53.150;18.160;2023-03-31T21:43:55;29.50;;;9.70;;
77080;SDS011;66009;53.150;18.160;2023-03-31T21:46:25;26.40;;;10.80;;
77080;SDS011;66009;53.150;18.160;2023-03-31T21:48:53;16.50;;;6.90;;
77080;SDS011;66009;53.150;18.160;2023-03-31T21:51:20;12.80;;;5.20;;
77080;SDS011;66009;53.150;18.160;2023-03-31T21:53:48;9.60;;;4.20;;
77080;SDS011;66009;53.150;18.160;2023-03-31T21:56:16;12.70;;;5.30;;
77080;SDS011;66009;53.150;18.160;2023-03-31T21:58:43;23.90;;;7.60;;
77080;SDS011;66009;53.150;18.160;2023-03-31T22:01:09;26.00;;;7.90;;
77080;SDS011;66009;53.150;18.160;2023-03-31T22:03:36;25.60;;;8.30;;
77080;SDS011;66009;53.150;18.160;2023-03-31T22:06:04;20.50;;;8.20;;
77080;SDS011;66009;53.150;18.160;2023-03-31T22:08:33;13.00;;;5.70;;
77080;SDS011;66009;53.150;18.160;2023-03-31T22:11:02;11.80;;;5.20;;
77080;SDS011;66009;53.150;18.160;2023-03-31T22:13:31;11.10;;;4.90;;
77080;SDS011;66009;53.150;18.160;2023-03-31T22:15:57;9.80;;;4.80;;
77080;SDS011;66009;53.150;18.160;2023-03-31T22:18:27;9.20;;;5.40;;
77080;SDS011;66009;53.150;18.160;2023-03-31T22:20:54;10.00;;;5.60;;
77080;SDS011;66009;53.150;18.160;2023-03-31T22:23:22;10.10;;;5.30;;
77080;SDS011;66009;53.150;18.160;2023-03-31T22:25:49;9.30;;;5.40;;
77080;SDS011;66009;53.150;18.160;2023-03-31T22:28:16;10.80;;;5.80;;
77080;SDS011;66009;53.150;18.160;2023-03-31T22:30:43;15.70;;;6.20;;
77080;SDS011;66009;53.150;18.160;2023-03-31T22:33:09;15.60;;;7.00;;
77080;SDS011;66009;53.150;18.160;2023-03-31T22:35:37;17.60;;;7.80;;
77080;SDS011;66009;53.150;18.160;2023-03-31T22:38:03;21.50;;;8.40;;
77080;SDS011;66009;53.150;18.160;2023-03-31T22:40:30;11.20;;;6.40;;
77080;SDS011;66009;53.150;18.160;2023-03-31T22:42:57;11.00;;;6.50;;
77080;SDS011;66009;53.150;18.160;2023-03-31T22:45:26;11.60;;;6.70;;
77080;SDS011;66009;53.150;18.160;2023-03-31T22:47:52;10.80;;;5.80;;
77080;SDS011;66009;53.150;18.160;2023-03-31T22:50:19;10.80;;;6.40;;
77080;SDS011;66009;53.150;18.160;2023-03-31T22:52:46;12.20;;;5.60;;
77080;SDS011;66009;53.150;18.160;2023-03-31T22:55:12;12.50;;;6.50;;
77080;SDS011;66009;53.150;18.160;2023-03-31T22:57:39;20.80;;;8.20;;
77080;SDS011;66009;53.150;18.160;2023-03-31T23:00:06;21.20;;;8.90;;
77080;SDS011;66009;53.150;18.160;2023-03-31T23:02:34;14.60;;;7.70;;
77080;SDS011;66009;53.150;18.160;2023-03-31T23:05:00;21.40;;;9.80;;
77080;SDS011;66009;53.150;18.160;2023-03-31T23:07:27;15.00;;;8.30;;
77080;SDS011;66009;53.150;18.160;2023-03-31T23:09:55;18.90;;;8.30;;
77080;SDS011;66009;53.150;18.160;2023-03-31T23:12:25;13.00;;;6.80;;
77080;SDS011;66009;53.150;18.160;2023-03-31T23:14:52;11.80;;;7.40;;
77080;SDS011;66009;53.150;18.160;2023-03-31T23:17:19;16.30;;;7.80;;
77080;SDS011;66009;53.150;18.160;2023-03-31T23:19:46;14.10;;;8.00;;
77080;SDS011;66009;53.150;18.160;2023-03-31T23:22:13;13.70;;;8.00;;
77080;SDS011;66009;53.150;18.160;2023-03-31T23:24:40;15.00;;;8.30;;
77080;SDS011;66009;53.150;18.160;2023-03-31T23:27:06;15.90;;;9.20;;
77080;SDS011;66009;53.150;18.160;2023-03-31T23:29:33;13.80;;;8.20;;
77080;SDS011;66009;53.150;18.160;2023-03-31T23:32:01;12.70;;;8.50;;
77080;SDS011;66009;53.150;18.160;2023-03-31T23:34:28;14.00;;;8.90;;
77080;SDS011;66009;53.150;18.160;2023-03-31T23:36:55;14.30;;;8.40;;
77080;SDS011;66009;53.150;18.160;2023-03-31T23:39:21;14.40;;;8.20;;
77080;SDS011;66009;53.150;18.160;2023-03-31T23:41:48;13.50;;;8.00;;
77080;SDS011;66009;53.150;18.160;2023-03-31T23:44:14;14.20;;;7.80;;
77080;SDS011;66009;53.150;18.160;2023-03-31T23:46:41;13.60;;;7.90;;
77080;SDS011;66009;53.150;18.160;2023-03-31T23:49:09;14.60;;;8.10;;
77080;SDS011;66009;53.150;18.160;2023-03-31T23:51:36;14.90;;;8.60;;